sensor_id;sensor_type;location;lat;lon;timestamp;P1;durP1;ratioP1;P2;durP2;ratioP2
11313;SDS011;5712;48.858;9.206;2023-02-25T00:01:24;8.77;;;6.50;;
11313;SDS011;5712;48.858;9.206;2023-02-25T00:03:53;7.43;;;5.60;;
11313;SDS011;5712;48.858;9.206;2023-02-25T00:06:20;8.00;;;5.53;;
11313;SDS011;5712;48.858;9.206;2023-02-25T00:08:48;7.77;;;5.43;;
11313;SDS011;5712;48.858;9.206;2023-02-25T00:11:16;8.10;;;5.37;;
11313;SDS011;5712;48.858;9.206;2023-02-25T00:13:44;8.20;;;5.63;;
11313;SDS011;5712;48.858;9.206;2023-02-25T00:16:11;8.23;;;5.57;;
11313;SDS011;5712;48.858;9.206;2023-02-25T00:18:40;10.77;;;6.50;;
11313;SDS011;5712;48.858;9.206;2023-02-25T00:21:10;8.37;;;5.60;;
11313;SDS011;5712;48.858;9.206;2023-02-25T00:23:40;8.27;;;4.97;;
11313;SDS011;5712;48.858;9.206;2023-02-25T00:26:07;8.33;;;5.23;;
11313;SDS011;5712;48.858;9.206;2023-02-25T00:28:35;8.10;;;5.13;;
11313;SDS011;5712;48.858;9.206;2023-02-25T00:31:04;6.53;;;4.60;;
11313;SDS011;5712;48.858;9.206;2023-02-25T00:33:32;7.30;;;4.73;;
11313;SDS011;5712;48.858;9.206;2023-02-25T00:36:03;6.73;;;4.20;;
11313;SDS011;5712;48.858;9.206;2023-02-25T00:38:32;7.47;;;4.57;;
11313;SDS011;5712;48.858;9.206;2023-02-25T00:41:02;8.40;;;4.63;;
11313;SDS011;5712;48.858;9.206;2023-02-25T00:43:32;6.90;;;3.90;;
11313;SDS011;5712;48.858;9.206;2023-02-25T00:45:59;5.83;;;4.10;;
11313;SDS011;5712;48.858;9.206;2023-02-25T00:48:25;6.23;;;4.63;;
11313;SDS011;5712;48.858;9.206;2023-02-25T00:50:52;7.27;;;3.93;;
11313;SDS011;5712;48.858;9.206;2023-02-25T00:53:20;5.63;;;3.73;;
11313;SDS011;5712;48.858;9.206;2023-02-25T00:55:46;7.43;;;4.10;;
11313;SDS011;5712;48.858;9.206;2023-02-25T00:58:13;7.50;;;4.10;;
11313;SDS011;5712;48.858;9.206;2023-02-25T01:00:39;8.50;;;4.77;;
11313;SDS011;5712;48.858;9.206;2023-02-25T01:03:08;6.37;;;4.13;;
11313;SDS011;5712;48.858;9.206;2023-02-25T01:05:39;7.33;;;4.37;;
11313;SDS011;5712;48.858;9.206;2023-02-25T01:08:05;5.53;;;4.20;;
11313;SDS011;5712;48.858;9.206;2023-02-25T01:10:33;6.40;;;4.37;;
11313;SDS011;5712;48.858;9.206;2023-02-25T01:13:00;6.90;;;4.13;;
11313;SDS011;5712;48.858;9.206;2023-02-25T01:15:28;6.03;;;4.13;;
11313;SDS011;5712;48.858;9.206;2023-02-25T01:17:55;4.33;;;3.50;;
11313;SDS011;5712;48.858;9.206;2023-02-25T01:20:22;7.17;;;3.57;;
11313;SDS011;5712;48.858;9.206;2023-02-25T01:22:48;5.20;;;3.50;;
11313;SDS011;5712;48.858;9.206;2023-02-25T01:25:15;3.37;;;3.00;;
11313;SDS011;5712;48.858;9.206;2023-02-25T01:27:43;4.67;;;3.27;;
11313;SDS011;5712;48.858;9.206;2023-02-25T01:30:10;4.57;;;3.07;;
11313;SDS011;5712;48.858;9.206;2023-02-25T01:32:37;7.67;;;3.77;;
11313;SDS011;5712;48.858;9.206;2023-02-25T01:35:04;5.17;;;3.20;;
11313;SDS011;5712;48.858;9.206;2023-02-25T01:37:30;6.47;;;3.93;;
11313;SDS011;5712;48.858;9.206;2023-02-25T01:39:57;4.70;;;3.70;;
11313;SDS011;5712;48.858;9.206;2023-02-25T01:42:23;5.07;;;3.60;;
11313;SDS011;5712;48.858;9.206;2023-02-25T01:48:00;7.57;;;4.10;;
11313;SDS011;5712;48.858;9.206;2023-02-25T01:50:34;7.07;;;3.50;;
11313;SDS011;5712;48.858;9.206;2023-02-25T01:53:06;5.23;;;3.77;;
11313;SDS011;5712;48.858;9.206;2023-02-25T01:55:33;6.47;;;3.80;;
11313;SDS011;5712;48.858;9.206;2023-02-25T01:58:01;4.77;;;3.70;;
11313;SDS011;5712;48.858;9.206;2023-02-25T02:00:28;7.10;;;3.63;;
11313;SDS011;5712;48.858;9.206;2023-02-25T02:02:59;6.37;;;3.37;;
11313;SDS011;5712;48.858;9.206;2023-02-25T02:05:28;6.60;;;3.07;;
11313;SDS011;5712;48.858;9.206;2023-02-25T02:08:04;4.17;;;3.07;;
11313;SDS011;5712;48.858;9.206;2023-02-25T02:10:31;6.00;;;3.43;;
11313;SDS011;5712;48.858;9.206;2023-02-25T02:12:57;4.73;;;3.03;;
11313;SDS011;5712;48.858;9.206;2023-02-25T02:15:24;5.80;;;2.90;;
11313;SDS011;5712;48.858;9.206;2023-02-25T02:17:51;6.13;;;3.00;;
11313;SDS011;5712;48.858;9.206;2023-02-25T02:20:25;5.67;;;3.30;;
11313;SDS011;5712;48.858;9.206;2023-02-25T02:32:14;3.00;;;2.40;;
11313;SDS011;5712;48.858;9.206;2023-02-25T02:34:47;3.63;;;2.53;;
11313;SDS011;5712;48.858;9.206;2023-02-25T02:37:28;6.33;;;2.70;;
11313;SDS011;5712;48.858;9.206;2023-02-25T02:40:02;3.83;;;3.03;;
11313;SDS011;5712;48.858;9.206;2023-02-25T02:42:41;5.47;;;2.90;;
11313;SDS011;5712;48.858;9.206;2023-02-25T02:45:12;6.23;;;2.63;;
11313;SDS011;5712;48.858;9.206;2023-02-25T02:47:47;6.57;;;2.93;;
11313;SDS011;5712;48.858;9.206;2023-02-25T02:50:17;5.93;;;2.90;;
11313;SDS011;5712;48.858;9.206;2023-02-25T02:52:52;6.83;;;2.83;;
11313;SDS011;5712;48.858;9.206;2023-02-25T02:55:24;6.80;;;3.00;;
11313;SDS011;5712;48.858;9.206;2023-02-25T02:57:55;3.47;;;2.80;;
11313;SDS011;5712;48.858;9.206;2023-02-25T03:00:29;3.97;;;2.87;;
11313;SDS011;5712;48.858;9.206;2023-02-25T03:03:03;5.03;;;3.03;;
11313;SDS011;5712;48.858;9.206;2023-02-25T03:05:33;4.43;;;2.80;;
11313;SDS011;5712;48.858;9.206;2023-02-25T03:08:04;4.27;;;2.63;;
11313;SDS011;5712;48.858;9.206;2023-02-25T03:10:35;6.60;;;3.07;;
11313;SDS011;5712;48.858;9.206;2023-02-25T03:13:02;4.77;;;3.00;;
11313;SDS011;5712;48.858;9.206;2023-02-25T03:15:29;5.80;;;3.10;;
11313;SDS011;5712;48.858;9.206;2023-02-25T03:17:57;5.27;;;3.20;;
11313;SDS011;5712;48.858;9.206;2023-02-25T03:20:31;5.17;;;3.10;;
11313;SDS011;5712;48.858;9.206;2023-02-25T03:23:03;5.53;;;3.17;;
11313;SDS011;5712;48.858;9.206;2023-02-25T03:25:34;6.30;;;3.40;;
11313;SDS011;5712;48.858;9.206;2023-02-25T03:28:13;5.20;;;2.93;;
11313;SDS011;5712;48.858;9.206;2023-02-25T03:30:56;6.10;;;3.40;;
11313;SDS011;5712;48.858;9.206;2023-02-25T03:33:27;3.80;;;3.10;;
11313;SDS011;5712;48.858;9.206;2023-02-25T03:35:59;4.23;;;2.90;;
11313;SDS011;5712;48.858;9.206;2023-02-25T03:38:28;5.37;;;3.13;;
11313;SDS011;5712;48.858;9.206;2023-02-25T03:40:59;5.37;;;3.03;;
11313;SDS011;5712;48.858;9.206;2023-02-25T03:43:30;6.00;;;3.27;;
11313;SDS011;5712;48.858;9.206;2023-02-25T03:46:02;4.23;;;2.80;;
11313;SDS011;5712;48.858;9.206;2023-02-25T03:48:30;6.37;;;2.70;;
11313;SDS011;5712;48.858;9.206;2023-02-25T03:51:02;3.63;;;2.90;;
11313;SDS011;5712;48.858;9.206;2023-02-25T03:53:31;4.97;;;2.40;;
11313;SDS011;5712;48.858;9.206;2023-02-25T03:56:00;4.57;;;2.60;;
11313;SDS011;5712;48.858;9.206;2023-02-25T03:58:30;3.27;;;2.30;;
11313;SDS011;5712;48.858;9.206;2023-02-25T04:00:57;3.67;;;2.07;;
11313;SDS011;5712;48.858;9.206;2023-02-25T04:03:27;3.00;;;2.03;;
11313;SDS011;5712;48.858;9.206;2023-02-25T04:05:54;4.90;;;2.40;;
11313;SDS011;5712;48.858;9.206;2023-02-25T04:08:21;6.47;;;2.60;;
11313;SDS011;5712;48.858;9.206;2023-02-25T04:10:48;5.27;;;2.23;;
11313;SDS011;5712;48.858;9.206;2023-02-25T04:13:15;6.27;;;2.00;;
11313;SDS011;5712;48.858;9.206;2023-02-25T04:15:44;4.47;;;2.17;;
11313;SDS011;5712;48.858;9.206;2023-02-25T04:18:11;6.63;;;2.00;;
11313;SDS011;5712;48.858;9.206;2023-02-25T04:20:38;6.93;;;1.87;;
11313;SDS011;5712;48.858;9.206;2023-02-25T04:23:05;4.90;;;1.63;;
11313;SDS011;5712;48.858;9.206;2023-02-25T04:25:33;5.03;;;1.67;;
11313;SDS011;5712;48.858;9.206;2023-02-25T04:28:01;2.90;;;1.50;;
11313;SDS011;5712;48.858;9.206;2023-02-25T04:30:28;4.83;;;1.90;;
11313;SDS011;5712;48.858;9.206;2023-02-25T04:32:54;3.20;;;1.80;;
11313;SDS011;5712;48.858;9.206;2023-02-25T04:35:20;2.10;;;1.43;;
11313;SDS011;5712;48.858;9.206;2023-02-25T04:37:47;3.63;;;1.67;;
11313;SDS011;5712;48.858;9.206;2023-02-25T04:40:14;5.80;;;1.87;;
11313;SDS011;5712;48.858;9.206;2023-02-25T04:42:44;3.67;;;2.10;;
11313;SDS011;5712;48.858;9.206;2023-02-25T04:45:11;2.97;;;1.60;;
11313;SDS011;5712;48.858;9.206;2023-02-25T04:47:38;5.57;;;1.70;;
11313;SDS011;5712;48.858;9.206;2023-02-25T04:50:05;3.20;;;1.60;;
11313;SDS011;5712;48.858;9.206;2023-02-25T04:52:34;3.13;;;1.80;;
11313;SDS011;5712;48.858;9.206;2023-02-25T04:55:01;4.80;;;1.47;;
11313;SDS011;5712;48.858;9.206;2023-02-25T04:57:29;5.97;;;1.77;;
11313;SDS011;5712;48.858;9.206;2023-02-25T04:59:57;3.40;;;1.67;;
11313;SDS011;5712;48.858;9.206;2023-02-25T05:02:23;4.70;;;1.40;;
11313;SDS011;5712;48.858;9.206;2023-02-25T05:04:50;3.07;;;1.70;;
11313;SDS011;5712;48.858;9.206;2023-02-25T05:07:16;4.30;;;1.73;;
11313;SDS011;5712;48.858;9.206;2023-02-25T05:09:42;2.80;;;1.70;;
11313;SDS011;5712;48.858;9.206;2023-02-25T05:12:09;2.93;;;1.40;;
11313;SDS011;5712;48.858;9.206;2023-02-25T05:14:36;6.50;;;1.67;;
11313;SDS011;5712;48.858;9.206;2023-02-25T05:17:03;3.47;;;1.47;;
11313;SDS011;5712;48.858;9.206;2023-02-25T05:19:30;5.47;;;1.90;;
11313;SDS011;5712;48.858;9.206;2023-02-25T05:21:56;3.33;;;1.80;;
11313;SDS011;5712;48.858;9.206;2023-02-25T05:24:23;1.90;;;1.40;;
11313;SDS011;5712;48.858;9.206;2023-02-25T05:26:49;3.40;;;1.30;;
11313;SDS011;5712;48.858;9.206;2023-02-25T05:29:16;4.40;;;1.60;;
11313;SDS011;5712;48.858;9.206;2023-02-25T05:31:42;8.87;;;1.67;;
11313;SDS011;5712;48.858;9.206;2023-02-25T05:34:10;4.83;;;1.47;;
11313;SDS011;5712;48.858;9.206;2023-02-25T05:36:37;4.30;;;1.27;;
11313;SDS011;5712;48.858;9.206;2023-02-25T05:39:03;4.07;;;1.33;;
11313;SDS011;5712;48.858;9.206;2023-02-25T05:41:31;5.93;;;1.40;;
11313;SDS011;5712;48.858;9.206;2023-02-25T05:43:58;3.30;;;1.50;;
11313;SDS011;5712;48.858;9.206;2023-02-25T05:46:24;3.97;;;1.20;;
11313;SDS011;5712;48.858;9.206;2023-02-25T05:48:51;5.90;;;1.60;;
11313;SDS011;5712;48.858;9.206;2023-02-25T05:51:19;6.40;;;1.40;;
11313;SDS011;5712;48.858;9.206;2023-02-25T05:53:47;3.57;;;1.47;;
11313;SDS011;5712;48.858;9.206;2023-02-25T05:56:14;2.93;;;1.50;;
11313;SDS011;5712;48.858;9.206;2023-02-25T05:58:42;4.80;;;1.40;;
11313;SDS011;5712;48.858;9.206;2023-02-25T06:01:11;2.40;;;1.23;;
11313;SDS011;5712;48.858;9.206;2023-02-25T06:03:39;3.73;;;1.70;;
11313;SDS011;5712;48.858;9.206;2023-02-25T06:06:06;1.87;;;1.10;;
11313;SDS011;5712;48.858;9.206;2023-02-25T06:08:35;2.73;;;1.27;;
11313;SDS011;5712;48.858;9.206;2023-02-25T06:11:04;5.07;;;1.50;;
11313;SDS011;5712;48.858;9.206;2023-02-25T06:13:31;5.23;;;1.40;;
11313;SDS011;5712;48.858;9.206;2023-02-25T06:15:58;4.07;;;1.30;;
11313;SDS011;5712;48.858;9.206;2023-02-25T06:18:27;3.13;;;1.33;;
11313;SDS011;5712;48.858;9.206;2023-02-25T06:20:53;2.60;;;1.63;;
11313;SDS011;5712;48.858;9.206;2023-02-25T06:23:20;4.10;;;1.13;;
11313;SDS011;5712;48.858;9.206;2023-02-25T06:25:48;3.00;;;1.30;;
11313;SDS011;5712;48.858;9.206;2023-02-25T06:28:14;3.20;;;1.33;;
11313;SDS011;5712;48.858;9.206;2023-02-25T06:30:41;5.63;;;1.70;;
11313;SDS011;5712;48.858;9.206;2023-02-25T06:33:07;3.10;;;1.43;;
11313;SDS011;5712;48.858;9.206;2023-02-25T06:35:34;3.20;;;1.30;;
11313;SDS011;5712;48.858;9.206;2023-02-25T06:38:00;3.10;;;1.20;;
11313;SDS011;5712;48.858;9.206;2023-02-25T06:40:27;2.80;;;1.20;;
11313;SDS011;5712;48.858;9.206;2023-02-25T06:42:55;3.47;;;1.30;;
11313;SDS011;5712;48.858;9.206;2023-02-25T06:45:21;3.83;;;1.10;;
11313;SDS011;5712;48.858;9.206;2023-02-25T06:47:48;2.33;;;1.53;;
11313;SDS011;5712;48.858;9.206;2023-02-25T06:50:15;6.70;;;1.80;;
11313;SDS011;5712;48.858;9.206;2023-02-25T06:52:42;3.13;;;1.27;;
11313;SDS011;5712;48.858;9.206;2023-02-25T06:55:08;2.83;;;1.30;;
11313;SDS011;5712;48.858;9.206;2023-02-25T06:57:35;8.27;;;1.40;;
11313;SDS011;5712;48.858;9.206;2023-02-25T07:00:04;4.83;;;1.50;;
11313;SDS011;5712;48.858;9.206;2023-02-25T07:02:31;1.87;;;1.27;;
11313;SDS011;5712;48.858;9.206;2023-02-25T07:04:58;2.23;;;1.23;;
11313;SDS011;5712;48.858;9.206;2023-02-25T07:07:25;1.87;;;1.20;;
11313;SDS011;5712;48.858;9.206;2023-02-25T07:09:52;3.03;;;1.23;;
11313;SDS011;5712;48.858;9.206;2023-02-25T07:12:18;2.93;;;1.40;;
11313;SDS011;5712;48.858;9.206;2023-02-25T07:14:45;4.13;;;1.43;;
11313;SDS011;5712;48.858;9.206;2023-02-25T07:17:13;2.97;;;1.33;;
11313;SDS011;5712;48.858;9.206;2023-02-25T07:19:39;5.43;;;1.67;;
11313;SDS011;5712;48.858;9.206;2023-02-25T07:22:06;2.90;;;1.30;;
11313;SDS011;5712;48.858;9.206;2023-02-25T07:24:33;5.30;;;1.33;;
11313;SDS011;5712;48.858;9.206;2023-02-25T07:27:00;3.00;;;1.40;;
11313;SDS011;5712;48.858;9.206;2023-02-25T07:29:27;2.63;;;1.20;;
11313;SDS011;5712;48.858;9.206;2023-02-25T07:31:53;3.40;;;1.50;;
11313;SDS011;5712;48.858;9.206;2023-02-25T07:34:21;4.00;;;1.90;;
11313;SDS011;5712;48.858;9.206;2023-02-25T07:36:47;2.30;;;1.23;;
11313;SDS011;5712;48.858;9.206;2023-02-25T07:39:14;1.97;;;1.10;;
11313;SDS011;5712;48.858;9.206;2023-02-25T07:41:40;3.63;;;1.70;;
11313;SDS011;5712;48.858;9.206;2023-02-25T07:44:07;3.03;;;1.40;;
11313;SDS011;5712;48.858;9.206;2023-02-25T07:46:34;2.60;;;1.20;;
11313;SDS011;5712;48.858;9.206;2023-02-25T07:49:00;1.50;;;1.00;;
11313;SDS011;5712;48.858;9.206;2023-02-25T07:51:29;3.70;;;1.30;;
11313;SDS011;5712;48.858;9.206;2023-02-25T07:53:55;4.00;;;1.70;;
11313;SDS011;5712;48.858;9.206;2023-02-25T07:56:23;4.97;;;1.60;;
11313;SDS011;5712;48.858;9.206;2023-02-25T07:58:51;3.20;;;1.47;;
11313;SDS011;5712;48.858;9.206;2023-02-25T08:01:18;4.87;;;1.50;;
11313;SDS011;5712;48.858;9.206;2023-02-25T08:03:47;4.43;;;1.40;;
11313;SDS011;5712;48.858;9.206;2023-02-25T08:06:14;1.77;;;1.10;;
11313;SDS011;5712;48.858;9.206;2023-02-25T08:08:42;4.90;;;1.53;;
11313;SDS011;5712;48.858;9.206;2023-02-25T08:11:09;4.33;;;1.50;;
11313;SDS011;5712;48.858;9.206;2023-02-25T08:13:37;2.37;;;1.30;;
11313;SDS011;5712;48.858;9.206;2023-02-25T08:16:07;3.67;;;1.50;;
11313;SDS011;5712;48.858;9.206;2023-02-25T08:18:35;4.87;;;1.53;;
11313;SDS011;5712;48.858;9.206;2023-02-25T08:21:02;3.00;;;1.37;;
11313;SDS011;5712;48.858;9.206;2023-02-25T08:23:29;1.80;;;1.40;;
11313;SDS011;5712;48.858;9.206;2023-02-25T08:25:57;3.43;;;1.63;;
11313;SDS011;5712;48.858;9.206;2023-02-25T08:28:25;3.27;;;1.47;;
11313;SDS011;5712;48.858;9.206;2023-02-25T08:30:55;5.77;;;1.50;;
11313;SDS011;5712;48.858;9.206;2023-02-25T08:33:22;2.90;;;1.23;;
11313;SDS011;5712;48.858;9.206;2023-02-25T08:35:49;2.00;;;1.40;;
11313;SDS011;5712;48.858;9.206;2023-02-25T08:38:16;3.50;;;1.30;;
11313;SDS011;5712;48.858;9.206;2023-02-25T08:40:43;2.50;;;1.20;;
11313;SDS011;5712;48.858;9.206;2023-02-25T08:43:11;4.47;;;1.40;;
11313;SDS011;5712;48.858;9.206;2023-02-25T08:45:39;2.07;;;1.50;;
11313;SDS011;5712;48.858;9.206;2023-02-25T08:48:06;3.77;;;1.40;;
11313;SDS011;5712;48.858;9.206;2023-02-25T08:50:33;4.43;;;1.23;;
11313;SDS011;5712;48.858;9.206;2023-02-25T08:53:00;5.20;;;1.60;;
11313;SDS011;5712;48.858;9.206;2023-02-25T08:55:27;3.57;;;1.43;;
11313;SDS011;5712;48.858;9.206;2023-02-25T08:57:53;4.63;;;1.58;;
11313;SDS011;5712;48.858;9.206;2023-02-25T09:00:21;3.40;;;1.20;;
11313;SDS011;5712;48.858;9.206;2023-02-25T09:02:49;3.40;;;1.20;;
11313;SDS011;5712;48.858;9.206;2023-02-25T09:05:15;2.87;;;1.40;;
11313;SDS011;5712;48.858;9.206;2023-02-25T09:07:42;3.97;;;1.20;;
11313;SDS011;5712;48.858;9.206;2023-02-25T09:10:09;4.07;;;1.23;;
11313;SDS011;5712;48.858;9.206;2023-02-25T09:12:37;4.57;;;1.37;;
11313;SDS011;5712;48.858;9.206;2023-02-25T09:15:06;6.53;;;1.93;;
11313;SDS011;5712;48.858;9.206;2023-02-25T09:17:35;4.97;;;1.47;;
11313;SDS011;5712;48.858;9.206;2023-02-25T09:20:02;2.90;;;1.47;;
11313;SDS011;5712;48.858;9.206;2023-02-25T09:22:31;4.83;;;1.40;;
11313;SDS011;5712;48.858;9.206;2023-02-25T09:24:57;1.70;;;1.30;;
11313;SDS011;5712;48.858;9.206;2023-02-25T09:27:24;4.83;;;1.33;;
11313;SDS011;5712;48.858;9.206;2023-02-25T09:29:51;3.43;;;1.57;;
11313;SDS011;5712;48.858;9.206;2023-02-25T09:32:18;1.97;;;1.10;;
11313;SDS011;5712;48.858;9.206;2023-02-25T09:34:47;3.37;;;1.40;;
11313;SDS011;5712;48.858;9.206;2023-02-25T09:37:14;4.93;;;1.37;;
11313;SDS011;5712;48.858;9.206;2023-02-25T09:39:41;3.70;;;1.30;;
11313;SDS011;5712;48.858;9.206;2023-02-25T09:42:08;5.83;;;1.80;;
11313;SDS011;5712;48.858;9.206;2023-02-25T09:44:39;3.83;;;1.50;;
11313;SDS011;5712;48.858;9.206;2023-02-25T09:47:11;4.53;;;1.10;;
11313;SDS011;5712;48.858;9.206;2023-02-25T09:49:43;1.50;;;0.90;;
11313;SDS011;5712;48.858;9.206;2023-02-25T09:52:16;2.27;;;0.90;;
11313;SDS011;5712;48.858;9.206;2023-02-25T09:54:49;1.30;;;0.80;;
11313;SDS011;5712;48.858;9.206;2023-02-25T09:57:19;2.27;;;1.00;;
11313;SDS011;5712;48.858;9.206;2023-02-25T09:59:47;2.90;;;1.20;;
11313;SDS011;5712;48.858;9.206;2023-02-25T10:02:28;3.90;;;1.07;;
11313;SDS011;5712;48.858;9.206;2023-02-25T10:07:51;3.47;;;0.80;;
11313;SDS011;5712;48.858;9.206;2023-02-25T10:10:26;3.00;;;0.70;;
11313;SDS011;5712;48.858;9.206;2023-02-25T10:13:01;0.97;;;0.77;;
11313;SDS011;5712;48.858;9.206;2023-02-25T10:15:44;1.57;;;0.80;;
11313;SDS011;5712;48.858;9.206;2023-02-25T10:18:21;1.50;;;0.70;;
11313;SDS011;5712;48.858;9.206;2023-02-25T10:21:00;1.60;;;0.70;;
11313;SDS011;5712;48.858;9.206;2023-02-25T10:23:42;1.10;;;0.87;;
11313;SDS011;5712;48.858;9.206;2023-02-25T10:26:17;1.57;;;0.77;;
11313;SDS011;5712;48.858;9.206;2023-02-25T10:28:48;3.17;;;1.00;;
11313;SDS011;5712;48.858;9.206;2023-02-25T10:31:18;0.80;;;0.70;;
11313;SDS011;5712;48.858;9.206;2023-02-25T10:33:47;0.83;;;0.80;;
11313;SDS011;5712;48.858;9.206;2023-02-25T10:36:16;2.43;;;1.20;;
11313;SDS011;5712;48.858;9.206;2023-02-25T10:38:49;2.30;;;0.90;;
11313;SDS011;5712;48.858;9.206;2023-02-25T10:41:18;2.93;;;1.00;;
11313;SDS011;5712;48.858;9.206;2023-02-25T10:43:46;2.80;;;1.00;;
11313;SDS011;5712;48.858;9.206;2023-02-25T10:46:16;0.90;;;0.70;;
11313;SDS011;5712;48.858;9.206;2023-02-25T10:48:49;1.93;;;0.97;;
11313;SDS011;5712;48.858;9.206;2023-02-25T10:51:21;2.73;;;0.97;;
11313;SDS011;5712;48.858;9.206;2023-02-25T10:54:01;2.70;;;1.00;;
11313;SDS011;5712;48.858;9.206;2023-02-25T10:56:32;1.53;;;0.90;;
11313;SDS011;5712;48.858;9.206;2023-02-25T10:59:07;1.83;;;1.00;;
11313;SDS011;5712;48.858;9.206;2023-02-25T11:01:47;3.67;;;0.90;;
11313;SDS011;5712;48.858;9.206;2023-02-25T11:04:16;2.83;;;0.90;;
11313;SDS011;5712;48.858;9.206;2023-02-25T11:06:45;3.07;;;1.10;;
11313;SDS011;5712;48.858;9.206;2023-02-25T11:09:27;1.53;;;1.03;;
11313;SDS011;5712;48.858;9.206;2023-02-25T11:12:00;2.13;;;0.90;;
11313;SDS011;5712;48.858;9.206;2023-02-25T11:14:36;1.77;;;1.00;;
11313;SDS011;5712;48.858;9.206;2023-02-25T11:17:04;2.10;;;1.23;;
11313;SDS011;5712;48.858;9.206;2023-02-25T11:19:38;5.07;;;1.43;;
11313;SDS011;5712;48.858;9.206;2023-02-25T11:22:08;4.00;;;1.30;;
11313;SDS011;5712;48.858;9.206;2023-02-25T11:24:42;4.23;;;1.33;;
11313;SDS011;5712;48.858;9.206;2023-02-25T11:27:20;1.97;;;1.20;;
11313;SDS011;5712;48.858;9.206;2023-02-25T11:29:54;1.73;;;1.40;;
11313;SDS011;5712;48.858;9.206;2023-02-25T11:32:27;4.03;;;1.10;;
11313;SDS011;5712;48.858;9.206;2023-02-25T11:34:58;4.07;;;1.20;;
11313;SDS011;5712;48.858;9.206;2023-02-25T11:37:33;2.67;;;1.27;;
11313;SDS011;5712;48.858;9.206;2023-02-25T11:40:05;2.00;;;1.20;;
11313;SDS011;5712;48.858;9.206;2023-02-25T11:42:58;2.40;;;1.30;;
11313;SDS011;5712;48.858;9.206;2023-02-25T11:45:46;3.53;;;1.50;;
11313;SDS011;5712;48.858;9.206;2023-02-25T11:48:20;4.60;;;1.40;;
11313;SDS011;5712;48.858;9.206;2023-02-25T11:50:51;2.07;;;1.10;;
11313;SDS011;5712;48.858;9.206;2023-02-25T11:53:27;1.83;;;1.30;;
11313;SDS011;5712;48.858;9.206;2023-02-25T11:56:06;5.07;;;1.63;;
11313;SDS011;5712;48.858;9.206;2023-02-25T11:58:44;3.33;;;1.40;;
11313;SDS011;5712;48.858;9.206;2023-02-25T12:01:20;2.97;;;1.50;;
11313;SDS011;5712;48.858;9.206;2023-02-25T12:04:14;3.10;;;1.53;;
11313;SDS011;5712;48.858;9.206;2023-02-25T12:06:55;2.67;;;1.37;;
11313;SDS011;5712;48.858;9.206;2023-02-25T12:09:43;3.10;;;1.47;;
11313;SDS011;5712;48.858;9.206;2023-02-25T12:12:32;5.27;;;1.70;;
11313;SDS011;5712;48.858;9.206;2023-02-25T12:15:17;2.83;;;1.50;;
11313;SDS011;5712;48.858;9.206;2023-02-25T12:18:03;2.70;;;1.70;;
11313;SDS011;5712;48.858;9.206;2023-02-25T12:26:54;3.27;;;1.83;;
11313;SDS011;5712;48.858;9.206;2023-02-25T12:29:39;3.73;;;1.87;;
11313;SDS011;5712;48.858;9.206;2023-02-25T12:38:18;2.70;;;1.97;;
11313;SDS011;5712;48.858;9.206;2023-02-25T12:41:06;3.17;;;1.37;;
11313;SDS011;5712;48.858;9.206;2023-02-25T12:43:43;4.23;;;1.30;;
11313;SDS011;5712;48.858;9.206;2023-02-25T12:46:18;4.43;;;1.50;;
11313;SDS011;5712;48.858;9.206;2023-02-25T12:49:04;3.33;;;1.70;;
11313;SDS011;5712;48.858;9.206;2023-02-25T12:51:49;2.87;;;1.30;;
11313;SDS011;5712;48.858;9.206;2023-02-25T12:54:35;3.23;;;1.53;;
11313;SDS011;5712;48.858;9.206;2023-02-25T12:57:31;5.23;;;1.40;;
11313;SDS011;5712;48.858;9.206;2023-02-25T13:00:22;1.97;;;1.20;;
11313;SDS011;5712;48.858;9.206;2023-02-25T13:03:17;3.93;;;1.30;;
11313;SDS011;5712;48.858;9.206;2023-02-25T13:05:54;3.33;;;1.17;;
11313;SDS011;5712;48.858;9.206;2023-02-25T13:08:46;4.63;;;1.50;;
11313;SDS011;5712;48.858;9.206;2023-02-25T13:11:22;5.63;;;1.50;;
11313;SDS011;5712;48.858;9.206;2023-02-25T13:14:03;3.07;;;1.40;;
11313;SDS011;5712;48.858;9.206;2023-02-25T13:22:55;3.17;;;1.50;;
11313;SDS011;5712;48.858;9.206;2023-02-25T13:25:38;5.10;;;1.43;;
11313;SDS011;5712;48.858;9.206;2023-02-25T13:28:20;6.43;;;1.50;;
11313;SDS011;5712;48.858;9.206;2023-02-25T13:31:00;6.10;;;1.70;;
11313;SDS011;5712;48.858;9.206;2023-02-25T13:33:37;4.80;;;1.47;;
11313;SDS011;5712;48.858;9.206;2023-02-25T13:36:31;2.20;;;1.30;;
11313;SDS011;5712;48.858;9.206;2023-02-25T13:39:13;2.37;;;1.20;;
11313;SDS011;5712;48.858;9.206;2023-02-25T13:42:05;2.47;;;1.23;;
11313;SDS011;5712;48.858;9.206;2023-02-25T13:44:50;3.70;;;1.47;;
11313;SDS011;5712;48.858;9.206;2023-02-25T13:47:41;4.90;;;1.60;;
11313;SDS011;5712;48.858;9.206;2023-02-25T13:50:21;3.90;;;1.23;;
11313;SDS011;5712;48.858;9.206;2023-02-25T13:53:00;2.27;;;1.13;;
11313;SDS011;5712;48.858;9.206;2023-02-25T13:55:50;4.03;;;1.47;;
11313;SDS011;5712;48.858;9.206;2023-02-25T13:58:34;3.63;;;1.40;;
11313;SDS011;5712;48.858;9.206;2023-02-25T14:01:15;3.60;;;1.33;;
11313;SDS011;5712;48.858;9.206;2023-02-25T14:07:04;3.03;;;1.70;;
11313;SDS011;5712;48.858;9.206;2023-02-25T14:09:44;4.13;;;1.53;;
11313;SDS011;5712;48.858;9.206;2023-02-25T14:12:29;4.43;;;1.73;;
11313;SDS011;5712;48.858;9.206;2023-02-25T14:15:14;4.00;;;1.80;;
11313;SDS011;5712;48.858;9.206;2023-02-25T14:17:51;2.93;;;1.50;;
11313;SDS011;5712;48.858;9.206;2023-02-25T14:20:38;11.27;;;1.70;;
11313;SDS011;5712;48.858;9.206;2023-02-25T14:23:14;2.97;;;1.50;;
11313;SDS011;5712;48.858;9.206;2023-02-25T14:25:55;3.53;;;1.63;;
11313;SDS011;5712;48.858;9.206;2023-02-25T14:28:40;4.27;;;1.70;;
11313;SDS011;5712;48.858;9.206;2023-02-25T14:31:16;2.73;;;1.47;;
11313;SDS011;5712;48.858;9.206;2023-02-25T14:33:54;3.97;;;1.33;;
11313;SDS011;5712;48.858;9.206;2023-02-25T14:36:43;3.20;;;1.63;;
11313;SDS011;5712;48.858;9.206;2023-02-25T14:39:31;3.83;;;1.50;;
11313;SDS011;5712;48.858;9.206;2023-02-25T14:42:25;3.33;;;1.43;;
11313;SDS011;5712;48.858;9.206;2023-02-25T14:45:03;1.90;;;1.17;;
11313;SDS011;5712;48.858;9.206;2023-02-25T14:47:41;3.87;;;1.70;;
11313;SDS011;5712;48.858;9.206;2023-02-25T14:50:13;5.47;;;2.30;;
11313;SDS011;5712;48.858;9.206;2023-02-25T14:52:49;5.67;;;1.70;;
11313;SDS011;5712;48.858;9.206;2023-02-25T14:55:48;3.47;;;1.43;;
11313;SDS011;5712;48.858;9.206;2023-02-25T14:58:41;5.13;;;1.73;;
11313;SDS011;5712;48.858;9.206;2023-02-25T15:01:43;3.87;;;1.30;;
11313;SDS011;5712;48.858;9.206;2023-02-25T15:04:33;5.13;;;1.70;;
11313;SDS011;5712;48.858;9.206;2023-02-25T15:07:16;4.03;;;1.87;;
11313;SDS011;5712;48.858;9.206;2023-02-25T15:13:09;7.73;;;1.90;;
11313;SDS011;5712;48.858;9.206;2023-02-25T15:19:11;3.63;;;1.70;;
11313;SDS011;5712;48.858;9.206;2023-02-25T15:24:48;4.90;;;1.40;;
11313;SDS011;5712;48.858;9.206;2023-02-25T15:30:17;4.23;;;1.33;;
11313;SDS011;5712;48.858;9.206;2023-02-25T15:32:48;3.30;;;1.13;;
11313;SDS011;5712;48.858;9.206;2023-02-25T15:35:23;3.20;;;1.23;;
11313;SDS011;5712;48.858;9.206;2023-02-25T15:38:17;6.53;;;1.50;;
11313;SDS011;5712;48.858;9.206;2023-02-25T15:40:47;6.37;;;1.30;;
11313;SDS011;5712;48.858;9.206;2023-02-25T15:51:57;3.63;;;2.10;;
11313;SDS011;5712;48.858;9.206;2023-02-25T15:54:44;3.83;;;1.97;;
11313;SDS011;5712;48.858;9.206;2023-02-25T16:00:08;5.47;;;2.30;;
11313;SDS011;5712;48.858;9.206;2023-02-25T16:03:23;5.57;;;2.87;;
11313;SDS011;5712;48.858;9.206;2023-02-25T16:05:51;4.93;;;2.30;;
11313;SDS011;5712;48.858;9.206;2023-02-25T16:08:21;4.47;;;2.17;;
11313;SDS011;5712;48.858;9.206;2023-02-25T16:10:50;3.57;;;2.00;;
11313;SDS011;5712;48.858;9.206;2023-02-25T16:13:21;5.07;;;2.23;;
11313;SDS011;5712;48.858;9.206;2023-02-25T16:15:52;4.73;;;2.83;;
11313;SDS011;5712;48.858;9.206;2023-02-25T16:18:22;5.53;;;2.60;;
11313;SDS011;5712;48.858;9.206;2023-02-25T16:20:57;4.70;;;2.50;;
11313;SDS011;5712;48.858;9.206;2023-02-25T16:23:29;8.20;;;2.80;;
11313;SDS011;5712;48.858;9.206;2023-02-25T16:25:59;7.70;;;3.00;;
11313;SDS011;5712;48.858;9.206;2023-02-25T16:28:35;6.47;;;2.53;;
11313;SDS011;5712;48.858;9.206;2023-02-25T16:31:10;7.60;;;2.60;;